createdAt,value
2023-04-14T00:01:37.261Z,100254.53
2023-04-14T00:06:39.109Z,100257.31
2023-04-14T00:11:41.655Z,100254.66
2023-04-14T00:16:44.437Z,100249.56
2023-04-14T00:21:46.553Z,100254.72
2023-04-14T00:26:48.598Z,100259.19
2023-04-14T00:31:50.604Z,100258.31
2023-04-14T00:36:52.774Z,100259.34
2023-04-14T00:41:54.637Z,100263.63
2023-04-14T00:46:57.299Z,100256.78
2023-04-14T00:51:59.665Z,100257.53
2023-04-14T00:57:03.084Z,100257.72
2023-04-14T01:02:05.381Z,100255.84
2023-04-14T01:07:07.476Z,100258.50
2023-04-14T01:12:30.855Z,100263.88
2023-04-14T01:17:44.883Z,100266.53
2023-04-14T01:22:58.982Z,100264.00
2023-04-14T01:28:33.045Z,100280.78
2023-04-14T01:33:38.734Z,100278.00
2023-04-14T01:38:43.907Z,100286.94
2023-04-14T01:43:50.404Z,100280.78
2023-04-14T01:48:53.082Z,100284.34
2023-04-14T01:53:57.759Z,100288.63
2023-04-14T01:59:02.064Z,100297.38
2023-04-14T02:04:05.869Z,100296.78
2023-04-14T02:09:12.788Z,100305.59
2023-04-14T02:14:17.147Z,100306.56
2023-04-14T02:19:21.462Z,100310.06
2023-04-14T02:24:24.161Z,100313.56
2023-04-14T02:29:29.140Z,100315.38
2023-04-14T02:34:37.865Z,100318.03
2023-04-14T02:39:45.685Z,100311.88
2023-04-14T02:44:55.215Z,100318.22
2023-04-14T02:50:01.994Z,100316.31
2023-04-14T02:55:06.569Z,100318.22
2023-04-14T03:00:09.558Z,100322.56
2023-04-14T03:05:12.739Z,100334.28
2023-04-14T03:10:15.053Z,100334.16
2023-04-14T03:15:18.676Z,100329.75
2023-04-14T03:20:23.639Z,100328.06
2023-04-14T03:25:28.114Z,100328.06
2023-04-14T03:30:33.829Z,100324.63
2023-04-14T03:35:36.880Z,100316.56
2023-04-14T03:40:41.545Z,100317.44
2023-04-14T03:45:44.673Z,100308.69
2023-04-14T03:50:49.025Z,100311.34
2023-04-14T03:55:57.061Z,100313.13
2023-04-14T04:01:00.783Z,100317.50
2023-04-14T04:06:04.455Z,100320.09
2023-04-14T04:11:08.440Z,100322.91
2023-04-14T04:16:11.874Z,100329.31
2023-04-14T04:21:17.821Z,100333.69
2023-04-14T04:26:20.283Z,100332.75
2023-04-14T04:31:24.155Z,100322.91
2023-04-14T04:36:32.023Z,100328.22
2023-04-14T04:41:34.369Z,100335.59
2023-04-14T04:46:45.502Z,100336.25
2023-04-14T04:51:47.651Z,100326.59
2023-04-14T04:56:49.706Z,100323.22
2023-04-14T05:01:51.796Z,100323.31
2023-04-14T05:06:54.155Z,100322.38
2023-04-14T05:11:57.761Z,100323.22
2023-04-14T05:16:59.772Z,100323.31
2023-04-14T05:22:02.050Z,100337.59
2023-04-14T05:27:13.169Z,100341.03
2023-04-14T05:32:17.178Z,100346.28
2023-04-14T05:37:19.938Z,100342.06
2023-04-14T05:42:22.074Z,100343.69
2023-04-14T05:47:24.276Z,100342.06
2023-04-14T05:52:26.390Z,100339.34
2023-04-14T05:57:28.768Z,100337.59
2023-04-14T06:02:30.852Z,100337.53
2023-04-14T06:07:33.141Z,100340.28
2023-04-14T06:12:35.305Z,100338.91
2023-04-14T06:17:37.206Z,100328.28
2023-04-14T06:22:40.876Z,100318.34
2023-04-14T06:27:43.011Z,100321.34
2023-04-14T06:32:44.984Z,100312.28
2023-04-14T06:37:47.038Z,100303.53
2023-04-14T06:42:48.885Z,100306.47
2023-04-14T06:47:51.232Z,100301.81
2023-04-14T06:52:53.113Z,100304.41
2023-04-14T06:57:55.122Z,100304.19
2023-04-14T07:02:57.206Z,100305.38
2023-04-14T07:07:59.326Z,100299.72
2023-04-14T07:13:01.410Z,100299.41
2023-04-14T07:18:03.768Z,100297.94
2023-04-14T07:23:06.077Z,100293.56
2023-04-14T07:28:08.156Z,100302.66
2023-04-14T07:33:10.132Z,100297.38
2023-04-14T07:38:12.235Z,100295.13
2023-04-14T07:43:14.451Z,100282.59
2023-04-14T07:48:19.954Z,100280.91
2023-04-14T07:53:22.186Z,100280.28
2023-04-14T07:58:26.698Z,100279.84
2023-04-14T08:03:30.380Z,100274.75
2023-04-14T08:08:32.574Z,100285.66
2023-04-14T08:13:34.706Z,100279.16
2023-04-14T08:18:37.370Z,100269.66
2023-04-14T08:23:39.442Z,100275.84
2023-04-14T08:28:42.311Z,100272.94
2023-04-14T08:33:44.701Z,100269.50
2023-04-14T08:38:46.952Z,100258.19
2023-04-14T08:43:49.248Z,100263.56
2023-04-14T08:48:58.292Z,100257.34
2023-04-14T08:54:03.131Z,100270.91
2023-04-14T08:59:09.820Z,100269.09
2023-04-14T09:04:14.734Z,100259.50
2023-04-14T09:09:18.089Z,100257.41
2023-04-14T09:14:21.090Z,100253.91
2023-04-14T09:19:26.512Z,100244.38
2023-04-14T09:24:32.372Z,100234.97
2023-04-14T09:29:34.964Z,100249.16
2023-04-14T09:34:37.028Z,100227.09
2023-04-14T09:39:51.456Z,100238.38
2023-04-14T09:44:55.247Z,100229.94
2023-04-14T09:50:04.199Z,100228.13
2023-04-14T09:55:14.050Z,100225.66
2023-04-14T10:00:16.690Z,100224.06
2023-04-14T10:05:22.829Z,100218.03
2023-04-14T10:10:24.991Z,100214.81
2023-04-14T10:15:27.736Z,100214.47
2023-04-14T10:20:30.552Z,100190.22
2023-04-14T10:25:33.416Z,100187.03
2023-04-14T10:30:35.687Z,100182.88
2023-04-14T10:35:43.443Z,100183.44
2023-04-14T10:40:51.956Z,100180.13
2023-04-14T10:45:58.255Z,100175.66
2023-04-14T10:51:02.189Z,100160.19
2023-04-14T10:56:06.343Z,100165.09
2023-04-14T11:01:36.394Z,100167.75
2023-04-14T11:07:09.130Z,100145.06
2023-04-14T11:12:25.314Z,100138.50
2023-04-14T11:17:30.827Z,100138.34
2023-04-14T11:22:46.385Z,100137.28
2023-04-14T11:27:52.650Z,100128.47
2023-04-14T11:32:58.185Z,100121.72
2023-04-14T11:38:01.337Z,100125.22
2023-04-14T11:43:03.368Z,100112.13
2023-04-14T11:48:07.408Z,100114.06
2023-04-14T11:53:11.132Z,100110.25
2023-04-14T11:58:13.420Z,100101.34
2023-04-14T12:03:16.483Z,100109.09
2023-04-14T12:08:18.754Z,100099.22
2023-04-14T12:13:20.900Z,100086.09
2023-04-14T12:18:23.513Z,100093.91
2023-04-14T12:23:26.091Z,100093.97
2023-04-14T12:28:29.746Z,100090.38
2023-04-14T12:33:32.745Z,100086.00
2023-04-14T12:38:35.264Z,100084.19
2023-04-14T12:43:38.771Z,100077.28
2023-04-14T12:48:45.473Z,100066.34
2023-04-14T12:53:50.653Z,100069.13
2023-04-14T12:58:53.032Z,100069.22
2023-04-14T13:03:56.346Z,100063.69
2023-04-14T13:08:59.014Z,100068.91
2023-04-14T13:14:01.416Z,100055.84
2023-04-14T13:19:03.771Z,100055.91
2023-04-14T13:24:07.346Z,100046.97
2023-04-14T13:29:09.523Z,100053.19
2023-04-14T13:34:11.609Z,100033.59
2023-04-14T13:39:14.536Z,100034.28
2023-04-14T13:44:16.737Z,100022.97
2023-04-14T13:49:18.922Z,100028.28
2023-04-14T13:54:21.378Z,100021.47
2023-04-14T13:59:24.069Z,100020.41
2023-04-14T14:04:27.031Z,100016.06
2023-04-14T14:09:29.307Z,100012.34
2023-04-14T14:14:31.490Z,100006.28
2023-04-14T14:19:33.872Z,100000.03
2023-04-14T14:24:36.280Z,100000.97
2023-04-14T14:29:38.459Z,99995.81
2023-04-14T14:34:40.761Z,99992.97
2023-04-14T14:39:43.251Z,99994.88
2023-04-14T14:44:45.536Z,99997.59
2023-04-14T14:49:57.161Z,99987.66
2023-04-14T14:55:01.960Z,99985.09
2023-04-14T15:00:06.030Z,99992.97
2023-04-14T15:05:08.491Z,99984.06
2023-04-14T15:10:10.405Z,99979.88
2023-04-14T15:15:12.428Z,99985.97
2023-04-14T15:20:14.745Z,99975.50
2023-04-14T15:25:16.775Z,99981.78
2023-04-14T15:30:21.877Z,99976.53
2023-04-14T15:35:25.501Z,99979.13
2023-04-14T15:40:27.797Z,99979.41
2023-04-14T15:45:29.895Z,99981.84
2023-04-14T15:50:32.095Z,99988.03
2023-04-14T15:55:34.009Z,99982.91
2023-04-14T16:00:36.121Z,99983.97
2023-04-14T16:05:38.339Z,99975.03
2023-04-14T16:10:41.475Z,99984.06
2023-04-14T16:15:43.961Z,99983.28
2023-04-14T16:20:46.937Z,99974.56
2023-04-14T16:25:50.203Z,99971.91
2023-04-14T16:30:52.181Z,99973.72
2023-04-14T16:35:57.604Z,99986.13
2023-04-14T16:41:01.335Z,99980.72
2023-04-14T16:46:04.224Z,99976.47
2023-04-14T16:51:08.849Z,99971.91
2023-04-14T16:56:12.116Z,99966.75
2023-04-14T17:01:14.234Z,99969.25
2023-04-14T17:06:16.375Z,99966.69
2023-04-14T17:11:18.405Z,99972.84
2023-04-14T17:16:20.560Z,99971.91
2023-04-14T17:21:22.459Z,99969.34
2023-04-14T17:26:25.057Z,99973.50
2023-04-14T17:31:27.885Z,99974.75
2023-04-14T17:36:30.496Z,99975.91
2023-04-14T17:41:32.355Z,99978.34
2023-04-14T17:46:34.925Z,99980.63
2023-04-14T17:51:36.990Z,99980.06
2023-04-14T17:56:39.532Z,99985.19
2023-04-14T18:01:41.571Z,99989.66
2023-04-14T18:06:43.678Z,99989.66
2023-04-14T18:11:45.707Z,99984.22
2023-04-14T18:16:48.226Z,99989.00
2023-04-14T18:21:50.864Z,99995.34
2023-04-14T18:26:53.400Z,100000.75
2023-04-14T18:31:55.756Z,100001.59
2023-04-14T18:36:57.933Z,100004.38
2023-04-14T18:42:01.164Z,100013.28
2023-04-14T18:47:03.225Z,100008.81
2023-04-14T18:52:05.994Z,100015.94
2023-04-14T18:57:08.876Z,100016.78
2023-04-14T19:02:13.949Z,100023.91
2023-04-14T19:07:16.710Z,100033.00
2023-04-14T19:12:28.206Z,100031.56
2023-04-14T19:17:36.038Z,100035.94
2023-04-14T19:22:37.990Z,100040.69
2023-04-14T19:27:42.881Z,100038.34
2023-04-14T19:32:45.382Z,100049.03
2023-04-14T19:37:47.569Z,100048.56
2023-04-14T19:42:49.468Z,100060.03
2023-04-14T19:47:52.060Z,100051.03
2023-04-14T19:52:54.283Z,100060.94
2023-04-14T19:57:56.658Z,100061.94
2023-04-14T20:03:00.081Z,100058.44
2023-04-14T20:08:02.038Z,100065.56
2023-04-14T20:13:04.126Z,100065.94
2023-04-14T20:18:06.271Z,100064.44
2023-04-14T20:23:08.247Z,100075.06
2023-04-14T20:28:10.674Z,100070.78
2023-04-14T20:33:13.020Z,100072.84
2023-04-14T20:38:15.745Z,100063.94
2023-04-14T20:43:17.902Z,100071.72
2023-04-14T20:48:20.927Z,100068.28
2023-04-14T20:53:26.864Z,100083.69
2023-04-14T20:58:28.864Z,100074.31
2023-04-14T21:03:33.765Z,100070.22
2023-04-14T21:08:36.007Z,100069.75
2023-04-14T21:13:57.872Z,100064.31
2023-04-14T21:19:01.957Z,100056.94
2023-04-14T21:24:04.805Z,100051.22
2023-04-14T21:29:06.797Z,100063.66
2023-04-14T21:34:08.761Z,100063.66
2023-04-14T21:39:10.682Z,100068.22
2023-04-14T21:44:16.126Z,100067.84
2023-04-14T21:49:18.216Z,100069.91
2023-04-14T21:54:20.359Z,100074.22
2023-04-14T21:59:22.450Z,100081.13
2023-04-14T22:04:35.379Z,100076.34
2023-04-14T22:09:39.640Z,100068.91
2023-04-14T22:14:41.899Z,100069.06
2023-04-14T22:19:43.901Z,100063.59
2023-04-14T22:24:46.182Z,100070.66
2023-04-14T22:29:48.189Z,100082.34
2023-04-14T22:34:50.161Z,100094.50
2023-04-14T22:39:52.163Z,100096.47
2023-04-14T22:44:54.701Z,100092.97
2023-04-14T22:49:56.742Z,100095.34
2023-04-14T22:54:58.860Z,100099.06
2023-04-14T23:00:00.769Z,100089.63
2023-04-14T23:05:04.609Z,100085.09
2023-04-14T23:10:07.196Z,100093.06
2023-04-14T23:15:09.797Z,100087.66
2023-04-14T23:20:12.071Z,100078.84
2023-04-14T23:25:14.278Z,100088.41
2023-04-14T23:30:16.818Z,100080.53
2023-04-14T23:35:18.931Z,100081.59
2023-04-14T23:40:21.190Z,100090.50
2023-04-14T23:45:24.607Z,100092.22
2023-04-14T23:50:59.517Z,100087.09
2023-04-14T23:55:48.768Z,100078.75
